Aviation Digital Data Service (ADDS)

Output produced by TAFs form (2028 UTC 16 December 2017)
found at http://www.aviationweather.gov/adds/tafs/
 
KHSV 161953Z 21004KT 10SM OVC250 11/M01 A3022 RMK AO2 SLP235 T01061006
KHSV 161724Z 1618/1718 18005KT P6SM BKN250 
     FM170000 12003KT P6SM BKN150 
     FM171000 13005KT P6SM BKN035 OVC060 
     FM171500 14008KT 5SM -RA BR SCT007 BKN015 OVC025